Terminal Aerodrome Forecast
Issued by NWS

Home | Current Version | Previous Version | Text Only | Print | Product List | Glossary On
Versions: 1 2 3 4 5 6 7 8 9 10 11 12 13 14 15 16 17 18 19 20 21 22 23 24 25 26 27
000
FTUS46 KLOX 172334
TAFLGB
TAF
KLGB 172334Z 1800/1824 18006KT P6SM SKC
     FM180100 30008KT P6SM SKC
     FM181000 VRB03KT P6SM BKN012
     FM181200 VRB03KT P6SM OVC015
     FM181800 20004KT P6SM BKN015
     FM182000 22009KT P6SM SKC=

USA.gov is the U.S. government's official web portal to all federal, state and local government web resources and services.